createdAt,value
2018-03-08T00:01:54.170Z,1.23
2018-03-08T00:04:23.379Z,1.22
2018-03-08T00:06:51.765Z,1.23
2018-03-08T00:09:20.022Z,1.23
2018-03-08T00:11:48.361Z,1.20
2018-03-08T00:14:16.671Z,1.21
2018-03-08T00:16:45.864Z,1.21
2018-03-08T00:19:14.252Z,1.18
2018-03-08T00:21:42.612Z,1.21
2018-03-08T00:24:10.909Z,1.23
2018-03-08T00:26:39.476Z,1.18
2018-03-08T00:29:07.797Z,1.15
2018-03-08T00:31:36.088Z,1.18
2018-03-08T00:34:05.356Z,1.18
2018-03-08T00:36:33.745Z,1.19
2018-03-08T00:39:02.440Z,1.20
2018-03-08T00:41:30.997Z,1.19
2018-03-08T00:43:59.276Z,1.22
2018-03-08T00:46:27.656Z,1.22
2018-03-08T00:48:55.964Z,1.19
2018-03-08T00:51:24.239Z,1.21
2018-03-08T00:53:52.545Z,1.19
2018-03-08T00:56:21.590Z,1.21
2018-03-08T00:58:50.068Z,1.14
2018-03-08T01:01:18.352Z,1.15
2018-03-08T01:03:46.736Z,1.16
2018-03-08T01:06:15.002Z,1.13
2018-03-08T01:08:43.472Z,1.18
2018-03-08T01:11:12.008Z,1.15
2018-03-08T01:13:41.264Z,1.17
2018-03-08T01:16:09.574Z,1.23
2018-03-08T01:18:37.832Z,1.30
2018-03-08T01:21:06.111Z,1.24
2018-03-08T01:23:34.410Z,1.25
2018-03-08T01:26:03.453Z,1.26
2018-03-08T01:28:32.034Z,1.31
2018-03-08T01:31:00.340Z,1.35
2018-03-08T01:33:28.709Z,1.36
2018-03-08T01:35:56.998Z,1.38
2018-03-08T01:38:25.310Z,1.35
2018-03-08T01:40:53.636Z,1.35
2018-03-08T01:43:22.032Z,1.36
2018-03-08T01:45:50.469Z,1.38
2018-03-08T01:48:19.522Z,1.39
2018-03-08T01:50:47.831Z,1.42
2018-03-08T01:53:16.972Z,1.42
2018-03-08T01:55:46.195Z,1.43
2018-03-08T01:58:14.893Z,1.46
2018-03-08T02:00:43.669Z,1.46
2018-03-08T02:03:12.339Z,1.46
2018-03-08T02:05:40.828Z,1.44
2018-03-08T02:08:09.112Z,1.47
2018-03-08T02:10:37.888Z,1.45
2018-03-08T02:13:06.360Z,1.49
2018-03-08T02:15:34.678Z,1.53
2018-03-08T02:18:02.941Z,1.56
2018-03-08T02:20:31.535Z,1.57
2018-03-08T02:22:59.829Z,1.60
2018-03-08T02:25:28.093Z,1.59
2018-03-08T02:27:56.653Z,1.58
2018-03-08T02:30:24.937Z,1.59
2018-03-08T02:32:53.932Z,1.59
2018-03-08T02:35:22.236Z,1.55
2018-03-08T02:37:51.130Z,1.55
2018-03-08T02:40:20.162Z,1.57
2018-03-08T02:42:48.481Z,1.58
2018-03-08T02:45:17.572Z,1.58
2018-03-08T02:47:45.840Z,1.60
2018-03-08T02:50:14.329Z,1.56
2018-03-08T02:52:42.609Z,1.56
2018-03-08T02:55:10.886Z,1.54
2018-03-08T02:57:39.190Z,1.52
2018-03-08T03:00:07.475Z,1.50
2018-03-08T03:02:36.293Z,1.51
2018-03-08T03:05:05.368Z,1.50
2018-03-08T03:07:33.650Z,1.50
2018-03-08T03:10:04.076Z,1.49
2018-03-08T03:12:34.058Z,1.49
2018-03-08T03:15:02.327Z,1.49
2018-03-08T03:17:30.610Z,1.48
2018-03-08T03:19:59.848Z,1.50
2018-03-08T03:22:29.906Z,1.50
2018-03-08T03:24:59.323Z,1.51
2018-03-08T03:27:27.608Z,1.46
2018-03-08T03:29:56.076Z,1.46
2018-03-08T03:32:25.812Z,1.49
2018-03-08T03:34:54.092Z,1.45
2018-03-08T03:37:22.555Z,1.43
2018-03-08T03:39:50.833Z,1.40
2018-03-08T03:42:19.632Z,1.41
2018-03-08T03:44:48.300Z,1.40
2018-03-08T03:47:16.691Z,1.31
2018-03-08T03:49:44.953Z,1.27
2018-03-08T03:52:13.561Z,1.19
2018-03-08T03:54:41.850Z,1.15
2018-03-08T03:57:11.146Z,1.10
2018-03-08T03:59:39.692Z,1.05
2018-03-08T04:02:08.816Z,1.04
2018-03-08T04:04:37.091Z,1.05
2018-03-08T04:07:05.716Z,1.09
2018-03-08T04:09:34.021Z,1.11
2018-03-08T04:12:03.259Z,1.28
2018-03-08T04:14:31.953Z,1.26
2018-03-08T04:17:00.237Z,1.29
2018-03-08T04:19:29.028Z,1.30
2018-03-08T04:21:57.373Z,1.35
2018-03-08T04:24:26.103Z,1.39
2018-03-08T04:26:54.381Z,1.39
2018-03-08T04:29:22.899Z,1.39
2018-03-08T04:31:51.936Z,1.36
2018-03-08T04:34:20.249Z,1.39
2018-03-08T04:36:48.812Z,1.36
2018-03-08T04:39:17.086Z,1.38
2018-03-08T04:41:45.976Z,1.41
2018-03-08T04:44:14.310Z,1.42
2018-03-08T04:46:43.451Z,1.39
2018-03-08T04:49:11.717Z,1.40
2018-03-08T04:51:40.014Z,1.46
2018-03-08T04:54:08.488Z,1.42
2018-03-08T04:56:36.798Z,1.43
2018-03-08T04:59:05.888Z,1.40
2018-03-08T05:01:34.180Z,1.42
2018-03-08T05:04:02.444Z,1.47
2018-03-08T05:06:30.796Z,1.50
2018-03-08T05:08:59.276Z,1.44
2018-03-08T05:11:27.564Z,1.44
2018-03-08T05:13:55.832Z,1.47
2018-03-08T05:16:24.196Z,1.48
2018-03-08T05:18:52.501Z,1.47
2018-03-08T05:21:21.176Z,1.48
2018-03-08T05:23:49.489Z,1.49
2018-03-08T05:26:17.785Z,1.44
2018-03-08T05:28:46.840Z,1.45
2018-03-08T05:31:15.831Z,1.48
2018-03-08T05:33:44.103Z,1.52
2018-03-08T05:36:12.422Z,1.49
2018-03-08T05:38:42.328Z,1.53
2018-03-08T05:41:11.796Z,1.53
2018-03-08T05:43:41.160Z,1.52
2018-03-08T05:46:10.194Z,1.49
2018-03-08T05:48:38.821Z,1.48
2018-03-08T05:51:07.084Z,1.48
2018-03-08T05:53:35.425Z,1.50
2018-03-08T05:56:03.764Z,1.55
2018-03-08T05:58:32.823Z,1.55
2018-03-08T06:01:01.101Z,1.56
2018-03-08T06:03:30.155Z,1.60
2018-03-08T06:05:58.429Z,1.64
2018-03-08T06:08:26.688Z,1.65
2018-03-08T06:10:56.370Z,1.67
2018-03-08T06:13:25.272Z,1.73
2018-03-08T06:15:53.549Z,1.71
2018-03-08T06:18:21.852Z,1.73
2018-03-08T06:20:50.908Z,1.73
2018-03-08T06:23:19.184Z,1.78
2018-03-08T06:25:47.567Z,1.78
2018-03-08T06:28:16.435Z,1.79
2018-03-08T06:30:44.700Z,1.89
2018-03-08T06:33:13.613Z,1.86
2018-03-08T06:35:41.880Z,1.93
2018-03-08T06:38:10.974Z,1.93
2018-03-08T06:40:39.355Z,1.95
2018-03-08T06:43:07.728Z,2.06
2018-03-08T06:45:36.021Z,2.07
2018-03-08T06:48:04.396Z,2.10
2018-03-08T06:50:32.979Z,2.08
2018-03-08T06:53:01.267Z,2.07
2018-03-08T06:55:29.541Z,2.13
2018-03-08T06:57:58.029Z,2.14
2018-03-08T07:00:26.312Z,2.16
2018-03-08T07:02:55.396Z,2.22
2018-03-08T07:05:23.788Z,2.30
2018-03-08T07:07:52.084Z,2.33
2018-03-08T07:10:21.283Z,2.31
2018-03-08T07:12:49.957Z,2.36
2018-03-08T07:15:18.258Z,2.45
2018-03-08T07:17:46.618Z,2.41
2018-03-08T07:20:14.889Z,2.44
2018-03-08T07:22:43.167Z,2.51
2018-03-08T07:25:11.460Z,2.51
2018-03-08T07:27:40.683Z,2.56
2018-03-08T07:30:09.731Z,2.57
2018-03-08T07:32:38.029Z,2.60
2018-03-08T07:35:07.017Z,2.58
2018-03-08T07:37:35.331Z,2.70
2018-03-08T07:40:04.368Z,2.74
2018-03-08T07:42:32.816Z,2.76
2018-03-08T07:45:01.991Z,2.75
2018-03-08T07:47:30.236Z,2.78
2018-03-08T07:49:59.441Z,2.88
2018-03-08T07:52:27.744Z,2.94
2018-03-08T07:54:57.432Z,2.93
2018-03-08T07:57:25.701Z,2.92
2018-03-08T07:59:54.009Z,2.91
2018-03-08T08:02:22.302Z,2.93
2018-03-08T08:05:08.420Z,2.91
2018-03-08T08:07:54.425Z,2.78
2018-03-08T08:10:23.032Z,2.79
2018-03-08T08:12:51.309Z,2.83
2018-03-08T08:15:19.565Z,2.82
2018-03-08T08:17:48.775Z,2.73
2018-03-08T08:20:17.220Z,2.75
2018-03-08T08:22:46.264Z,2.65
2018-03-08T08:25:14.574Z,2.58
2018-03-08T08:27:42.972Z,2.54
2018-03-08T08:30:12.326Z,2.52
2018-03-08T08:32:40.797Z,2.69
2018-03-08T08:35:09.068Z,2.64
2018-03-08T08:37:37.352Z,2.59
2018-03-08T08:40:05.747Z,2.68
2018-03-08T08:42:34.353Z,2.62
2018-03-08T08:45:03.024Z,2.66
2018-03-08T08:47:31.521Z,2.71
2018-03-08T08:50:00.041Z,2.68
2018-03-08T08:52:29.088Z,2.75
2018-03-08T08:54:57.549Z,2.74
2018-03-08T08:57:27.388Z,2.78
2018-03-08T08:59:55.688Z,2.75
2018-03-08T09:02:24.315Z,2.84
2018-03-08T09:04:53.973Z,2.83
2018-03-08T09:07:23.080Z,2.89
2018-03-08T09:09:51.864Z,2.92
2018-03-08T09:12:20.855Z,3.03
2018-03-08T09:14:50.676Z,3.11
2018-03-08T09:17:19.328Z,3.19
2018-03-08T09:19:48.545Z,3.24
2018-03-08T09:22:16.840Z,3.31
2018-03-08T09:24:45.149Z,3.33
2018-03-08T09:27:14.176Z,3.40
2018-03-08T09:29:42.511Z,3.47
2018-03-08T09:32:11.536Z,3.47
2018-03-08T09:34:40.453Z,3.62
2018-03-08T09:37:08.744Z,3.68
2018-03-08T09:39:37.336Z,3.80
2018-03-08T09:42:05.605Z,3.82
2018-03-08T09:44:33.941Z,3.90
2018-03-08T09:47:02.650Z,3.90
2018-03-08T09:49:30.916Z,4.03
2018-03-08T09:51:59.504Z,4.05
2018-03-08T09:54:28.411Z,4.04
2018-03-08T09:56:56.789Z,3.98
2018-03-08T09:59:25.290Z,4.03
2018-03-08T10:01:53.652Z,3.99
2018-03-08T10:04:21.919Z,3.98
2018-03-08T10:06:50.293Z,4.11
2018-03-08T10:09:19.028Z,4.11
2018-03-08T10:11:47.371Z,4.07
2018-03-08T10:14:15.736Z,4.14
2018-03-08T10:16:44.330Z,4.23
2018-03-08T10:19:12.598Z,4.15
2018-03-08T10:21:44.517Z,4.32
2018-03-08T10:24:09.200Z,4.22
2018-03-08T10:26:37.464Z,4.29
2018-03-08T10:29:06.369Z,4.31
2018-03-08T10:31:35.012Z,4.33
2018-03-08T10:34:04.136Z,4.53
2018-03-08T10:36:32.829Z,4.50
2018-03-08T10:39:01.180Z,4.54
2018-03-08T10:43:58.872Z,4.45
2018-03-08T10:46:27.157Z,4.53
2018-03-08T10:51:23.896Z,4.77
2018-03-08T10:53:52.162Z,4.86
2018-03-08T10:56:21.027Z,4.98
2018-03-08T10:58:50.076Z,5.15
2018-03-08T11:01:23.816Z,5.19
2018-03-08T11:03:54.972Z,5.28
2018-03-08T11:06:28.996Z,5.28
2018-03-08T11:08:58.060Z,5.23
2018-03-08T11:11:26.319Z,5.40
2018-03-08T11:13:54.587Z,5.58
2018-03-08T11:16:23.289Z,5.79
2018-03-08T11:18:52.148Z,5.80
2018-03-08T11:21:20.548Z,5.92
2018-03-08T11:23:48.916Z,6.05
2018-03-08T11:26:17.195Z,6.24
2018-03-08T11:28:45.672Z,5.96
2018-03-08T11:31:13.965Z,6.05
2018-03-08T11:33:42.966Z,6.17
2018-03-08T11:36:11.257Z,6.15
2018-03-08T11:38:39.699Z,6.42
2018-03-08T11:41:07.977Z,6.81
2018-03-08T11:43:36.277Z,6.77
2018-03-08T11:46:04.567Z,6.58
2018-03-08T11:48:33.842Z,6.50
2018-03-08T11:51:01.527Z,6.59
2018-03-08T11:53:29.794Z,6.55
2018-03-08T11:55:58.080Z,6.60
2018-03-08T11:58:26.402Z,6.67
2018-03-08T12:00:56.186Z,6.73
2018-03-08T12:03:24.779Z,6.75
2018-03-08T12:05:53.254Z,7.14
2018-03-08T12:08:21.524Z,7.41
2018-03-08T12:10:50.416Z,7.43
2018-03-08T12:13:19.548Z,7.24
2018-03-08T12:15:48.722Z,7.40
2018-03-08T12:18:16.988Z,7.69
2018-03-08T12:20:45.407Z,7.75
2018-03-08T12:23:14.437Z,7.74
2018-03-08T12:25:42.725Z,7.80
2018-03-08T12:28:11.238Z,7.85
2018-03-08T12:30:39.507Z,7.66
2018-03-08T12:33:08.216Z,7.65
2018-03-08T12:35:37.080Z,7.72
2018-03-08T12:38:05.970Z,7.79
2018-03-08T12:40:34.968Z,7.74
2018-03-08T12:43:03.818Z,7.86
2018-03-08T12:45:32.084Z,7.97
2018-03-08T12:48:00.367Z,8.13
2018-03-08T12:50:28.777Z,8.88
2018-03-08T12:52:57.347Z,10.69
2018-03-08T12:55:26.242Z,12.15
2018-03-08T12:57:55.548Z,13.50
2018-03-08T13:00:24.749Z,15.82
2018-03-08T13:02:53.055Z,15.07
2018-03-08T13:05:21.716Z,16.00
2018-03-08T13:07:50.296Z,17.07
2018-03-08T13:10:18.814Z,17.40
2018-03-08T13:12:47.232Z,19.53
2018-03-08T13:15:15.524Z,18.03
2018-03-08T13:17:43.792Z,18.49
2018-03-08T13:20:12.096Z,18.11
2018-03-08T13:22:40.490Z,17.80
2018-03-08T13:25:08.765Z,17.39
2018-03-08T13:27:37.161Z,17.68
2018-03-08T13:30:05.451Z,17.11
2018-03-08T13:32:33.809Z,18.59
2018-03-08T13:35:02.138Z,18.48
2018-03-08T13:37:31.651Z,19.50
2018-03-08T13:39:59.928Z,18.77
2018-03-08T13:42:28.440Z,18.79
2018-03-08T13:44:56.699Z,20.46
2018-03-08T13:47:24.987Z,20.70
2018-03-08T13:49:53.283Z,20.28
2018-03-08T13:52:21.656Z,18.83
2018-03-08T13:54:49.928Z,16.36
2018-03-08T13:57:18.216Z,16.13
2018-03-08T13:59:46.580Z,15.16
2018-03-08T14:02:14.926Z,15.18
2018-03-08T14:04:43.172Z,14.69
2018-03-08T14:07:11.454Z,13.23
2018-03-08T14:09:40.271Z,13.86
2018-03-08T14:12:08.949Z,14.91
2018-03-08T14:14:38.007Z,15.00
2018-03-08T14:17:06.775Z,15.08
2018-03-08T14:19:35.199Z,14.09
2018-03-08T14:22:03.487Z,13.89
2018-03-08T14:24:31.783Z,14.09
2018-03-08T14:27:00.886Z,13.69
2018-03-08T14:29:30.028Z,13.80
2018-03-08T14:31:58.345Z,14.02
2018-03-08T14:34:27.100Z,13.23
2018-03-08T14:36:56.076Z,12.54
2018-03-08T14:39:24.393Z,12.04
2018-03-08T14:41:52.684Z,11.54
2018-03-08T14:44:21.734Z,11.34
2018-03-08T14:46:50.229Z,10.70
2018-03-08T14:49:18.514Z,10.60
2018-03-08T14:51:46.801Z,10.37
2018-03-08T14:54:15.093Z,10.20
2018-03-08T14:56:44.128Z,10.21
2018-03-08T14:59:12.410Z,10.01
2018-03-08T15:01:40.729Z,9.95
2018-03-08T15:04:08.997Z,9.86
2018-03-08T15:06:37.269Z,9.85
2018-03-08T15:09:06.000Z,9.87
2018-03-08T15:11:34.254Z,9.82
2018-03-08T15:14:02.521Z,9.87
2018-03-08T15:16:30.838Z,9.96
2018-03-08T15:18:59.136Z,9.86
2018-03-08T15:21:27.441Z,9.88
2018-03-08T15:23:55.813Z,9.84
2018-03-08T15:26:24.108Z,9.45
2018-03-08T15:28:52.495Z,9.45
2018-03-08T15:31:20.838Z,9.32
2018-03-08T15:33:49.199Z,9.28
2018-03-08T15:36:17.474Z,9.23
2018-03-08T15:38:45.785Z,9.06
2018-03-08T15:41:14.939Z,9.06
2018-03-08T15:43:43.971Z,9.14
2018-03-08T15:46:12.613Z,9.09
2018-03-08T15:48:42.425Z,9.05
2018-03-08T15:51:11.453Z,8.97
2018-03-08T15:53:39.728Z,8.96
2018-03-08T15:56:08.964Z,8.88
2018-03-08T15:58:37.229Z,8.80
2018-03-08T16:01:06.855Z,8.77
2018-03-08T16:03:35.160Z,8.71
2018-03-08T16:06:04.198Z,8.65
2018-03-08T16:08:53.972Z,8.66
2018-03-08T16:11:22.258Z,8.62
2018-03-08T16:13:50.530Z,8.61
2018-03-08T16:16:18.911Z,8.57
2018-03-08T16:18:47.731Z,8.61
2018-03-08T16:21:16.415Z,8.62
2018-03-08T16:23:44.945Z,8.56
2018-03-08T16:26:14.012Z,8.40
2018-03-08T16:28:42.271Z,8.39
2018-03-08T16:31:10.641Z,8.30
2018-03-08T16:33:39.024Z,8.25
2018-03-08T16:36:07.291Z,8.15
2018-03-08T16:38:35.589Z,8.05
2018-03-08T16:41:03.873Z,8.05
2018-03-08T16:43:32.684Z,7.96
2018-03-08T16:46:00.951Z,7.91
2018-03-08T16:48:29.497Z,7.76
2018-03-08T16:50:57.768Z,7.60
2018-03-08T16:53:27.272Z,7.40
2018-03-08T16:55:56.109Z,7.35
2018-03-08T16:58:24.389Z,7.28
2018-03-08T17:00:53.477Z,7.17
2018-03-08T17:03:21.796Z,7.10
2018-03-08T17:05:50.843Z,6.97
2018-03-08T17:08:19.500Z,6.85
2018-03-08T17:10:47.766Z,6.85
2018-03-08T17:13:16.022Z,6.74
2018-03-08T17:15:45.077Z,6.65
2018-03-08T17:18:13.374Z,6.65
2018-03-08T17:20:42.400Z,6.66
2018-03-08T17:23:10.783Z,6.67
2018-03-08T17:25:39.071Z,6.60
2018-03-08T17:28:07.352Z,6.59
2018-03-08T17:30:35.656Z,6.50
2018-03-08T17:33:03.920Z,6.47
2018-03-08T17:35:32.194Z,6.39
2018-03-08T17:38:00.531Z,6.33
2018-03-08T17:40:29.583Z,6.29
2018-03-08T17:42:57.846Z,6.23
2018-03-08T17:45:27.756Z,6.11
2018-03-08T17:47:56.148Z,6.08
2018-03-08T17:50:24.524Z,6.03
2018-03-08T17:52:52.808Z,5.93
2018-03-08T17:55:21.288Z,5.84
2018-03-08T17:57:49.585Z,5.85
2018-03-08T18:00:17.863Z,5.82
2018-03-08T18:02:46.281Z,5.75
2018-03-08T18:05:15.326Z,5.76
2018-03-08T18:07:44.520Z,5.78
2018-03-08T18:10:13.108Z,5.77
2018-03-08T18:12:41.399Z,5.73
2018-03-08T18:15:09.669Z,5.77
2018-03-08T18:17:37.960Z,5.74
2018-03-08T18:20:06.277Z,5.72
2018-03-08T18:22:34.532Z,5.65
2018-03-08T18:25:03.073Z,5.65
2018-03-08T18:27:31.353Z,5.64
2018-03-08T18:29:59.648Z,5.61
2018-03-08T18:32:27.943Z,5.54
2018-03-08T18:34:56.236Z,5.49
2018-03-08T18:37:25.277Z,5.45
2018-03-08T18:39:53.587Z,5.44
2018-03-08T18:42:21.874Z,5.38
2018-03-08T18:44:50.924Z,5.42
2018-03-08T18:47:19.327Z,5.33
2018-03-08T18:49:47.600Z,5.36
2018-03-08T18:52:16.052Z,5.35
2018-03-08T18:54:44.337Z,5.31
2018-03-08T18:57:13.128Z,5.22
2018-03-08T18:59:41.630Z,5.24
2018-03-08T19:02:12.922Z,5.24
2018-03-08T19:04:42.167Z,5.26
2018-03-08T19:07:11.301Z,5.24
2018-03-08T19:09:39.592Z,5.18
2018-03-08T19:12:08.281Z,5.25
2018-03-08T19:14:37.345Z,5.21
2018-03-08T19:17:05.610Z,5.23
2018-03-08T19:19:34.006Z,5.26
2018-03-08T19:22:02.498Z,5.20
2018-03-08T19:24:31.516Z,5.32
2018-03-08T19:27:00.771Z,5.28
2018-03-08T19:29:29.282Z,5.24
2018-03-08T19:31:58.132Z,5.28
2018-03-08T19:34:26.425Z,5.27
2018-03-08T19:36:54.699Z,5.24
2018-03-08T19:39:22.992Z,5.32
2018-03-08T19:41:51.461Z,5.28
2018-03-08T19:44:19.856Z,5.29
2018-03-08T19:46:48.609Z,5.34
2018-03-08T19:49:18.060Z,5.38
2018-03-08T19:51:46.329Z,5.32
2018-03-08T19:54:14.597Z,5.24
2018-03-08T19:56:42.881Z,5.24
2018-03-08T19:59:11.170Z,5.30
2018-03-08T20:01:40.967Z,5.27
2018-03-08T20:04:09.512Z,5.28
2018-03-08T20:06:37.817Z,5.29
2018-03-08T20:09:06.226Z,5.24
2018-03-08T20:11:34.501Z,5.21
2018-03-08T20:14:02.859Z,5.14
2018-03-08T20:16:31.153Z,5.09
2018-03-08T20:19:00.031Z,5.05
2018-03-08T20:21:28.297Z,5.09
2018-03-08T20:23:56.629Z,5.12
2018-03-08T20:26:25.779Z,5.11
2018-03-08T20:28:54.071Z,5.04
2018-03-08T20:31:22.741Z,5.00
2018-03-08T20:33:51.021Z,4.91
2018-03-08T20:36:20.460Z,4.88
2018-03-08T20:38:48.807Z,4.88
2018-03-08T20:41:17.076Z,4.87
2018-03-08T20:43:46.021Z,4.85
2018-03-08T20:46:15.092Z,4.86
2018-03-08T20:48:43.357Z,4.79
2018-03-08T20:51:11.630Z,4.75
2018-03-08T20:53:39.937Z,4.74
2018-03-08T20:56:08.419Z,4.72
2018-03-08T20:58:37.449Z,4.62
2018-03-08T21:01:06.526Z,4.66
2018-03-08T21:03:35.606Z,4.65
2018-03-08T21:06:03.892Z,4.71
2018-03-08T21:08:32.988Z,4.66
2018-03-08T21:11:01.889Z,4.65
2018-03-08T21:13:30.921Z,4.60
2018-03-08T21:15:59.229Z,4.57
2018-03-08T21:18:28.309Z,4.62
2018-03-08T21:20:56.595Z,4.69
2018-03-08T21:23:24.889Z,4.64
2018-03-08T21:25:53.147Z,4.65
2018-03-08T21:28:21.942Z,4.50
2018-03-08T21:30:50.208Z,4.48
2018-03-08T21:33:19.552Z,4.54
2018-03-08T21:35:48.210Z,4.42
2018-03-08T21:38:16.497Z,4.37
2018-03-08T21:40:44.888Z,4.38
2018-03-08T21:43:13.235Z,4.37
2018-03-08T21:45:41.523Z,4.27
2018-03-08T21:48:09.829Z,4.32
2018-03-08T21:50:38.098Z,4.21
2018-03-08T21:53:06.512Z,4.13
2018-03-08T21:55:35.851Z,4.11
2018-03-08T21:58:04.170Z,4.12
2018-03-08T22:00:32.530Z,4.08
2018-03-08T22:03:00.801Z,4.00
2018-03-08T22:05:29.073Z,3.95
2018-03-08T22:07:57.381Z,3.90
2018-03-08T22:10:25.636Z,3.92
2018-03-08T22:12:53.921Z,3.95
2018-03-08T22:15:22.228Z,3.96
2018-03-08T22:17:51.245Z,3.91
2018-03-08T22:20:20.336Z,3.88
2018-03-08T22:22:48.648Z,3.85
2018-03-08T22:25:17.072Z,3.92
2018-03-08T22:27:45.344Z,3.95
2018-03-08T22:30:13.680Z,3.92
2018-03-08T22:32:41.968Z,3.95
2018-03-08T22:35:10.232Z,3.89
2018-03-08T22:37:39.150Z,3.86
2018-03-08T22:40:07.417Z,3.92
2018-03-08T22:42:35.676Z,3.98
2018-03-08T22:45:04.088Z,3.90
2018-03-08T22:47:32.448Z,3.78
2018-03-08T22:50:01.370Z,3.69
2018-03-08T22:52:29.942Z,3.71
2018-03-08T22:54:58.222Z,3.68
2018-03-08T22:57:26.502Z,3.81
2018-03-08T22:59:54.781Z,3.84
2018-03-08T23:02:28.632Z,3.77
2018-03-08T23:04:57.249Z,3.78
2018-03-08T23:07:25.509Z,3.76
2018-03-08T23:09:55.159Z,3.68
2018-03-08T23:12:23.449Z,3.74
2018-03-08T23:14:51.969Z,3.76
2018-03-08T23:17:20.252Z,3.80
2018-03-08T23:19:48.542Z,3.72
2018-03-08T23:22:17.893Z,3.78
2018-03-08T23:24:46.229Z,3.76
2018-03-08T23:27:15.020Z,3.80
2018-03-08T23:29:43.324Z,3.77
2018-03-08T23:32:12.381Z,3.75
2018-03-08T23:34:40.968Z,3.81
2018-03-08T23:37:09.265Z,3.82
2018-03-08T23:39:37.660Z,3.83
2018-03-08T23:42:06.132Z,3.82
2018-03-08T23:44:34.406Z,3.84
2018-03-08T23:47:02.687Z,3.75
2018-03-08T23:49:31.058Z,3.82
2018-03-08T23:51:59.331Z,3.81
2018-03-08T23:54:27.603Z,3.78
2018-03-08T23:56:55.911Z,3.76
2018-03-08T23:59:24.916Z,3.75
